Terminal Aerodrome Forecast
Issued by NWS

Home | Current Version | Previous Version | Text Only | Print | Product List | Glossary On
Versions: 1 2 3 4 5 6 7 8 9 10 11 12 13 14 15 16 17 18 19 20 21 22 23 24 25 26 27 28 29 30 31 32 33 34 35 36 37 38 39 40 41 42 43 44
000
FTAK31 PANC 232333
TAFADL
TAF
PADL 232333Z 2400/2424 21011KT P6SM -SHRA SCT025 OVC050
      TEMPO 2400/2403 BKN025 OVC050
     FM240400 22007KT 6SM -SHRA BR OVC015
     FM240900 VRB03KT 3SM BR VCSH BKN006 OVC012
     FM241800 VRB05KT P6SM BKN025 OVC035=

USA.gov is the U.S. government's official web portal to all federal, state and local government web resources and services.